createdAt,value
2022-09-06T00:05:44.735Z,37.95
2022-09-06T00:08:12.171Z,34.88
2022-09-06T00:13:43.175Z,42.00
2022-09-06T00:16:30.112Z,37.15
2022-09-06T00:19:09.645Z,34.45
2022-09-06T00:22:06.749Z,36.10
2022-09-06T00:25:02.331Z,34.13
2022-09-06T00:27:44.625Z,39.75
2022-09-06T00:30:21.194Z,40.85
2022-09-06T00:33:39.808Z,39.53
2022-09-06T00:36:58.326Z,41.17
2022-09-06T00:44:43.294Z,38.53
2022-09-06T00:47:37.509Z,37.00
2022-09-06T00:50:31.155Z,42.13
2022-09-06T00:53:27.975Z,51.25
2022-09-06T00:56:35.412Z,42.63
2022-09-06T00:59:36.819Z,34.40
2022-09-06T01:02:26.529Z,35.70
2022-09-06T01:06:02.873Z,41.08
2022-09-06T01:09:24.669Z,43.90
2022-09-06T01:13:06.498Z,40.28
2022-09-06T01:17:05.127Z,38.90
2022-09-06T01:19:59.045Z,49.85
2022-09-06T01:22:53.628Z,47.58
2022-09-06T01:26:02.729Z,42.67
2022-09-06T01:28:50.939Z,46.15
2022-09-06T01:35:50.717Z,48.55
2022-09-06T01:38:47.708Z,59.00
2022-09-06T01:41:24.239Z,50.17
2022-09-06T01:43:52.439Z,44.30
2022-09-06T01:46:39.782Z,52.80
2022-09-06T01:49:20.888Z,45.97
2022-09-06T01:52:48.456Z,44.75
2022-09-06T01:56:08.159Z,54.53
2022-09-06T01:59:07.112Z,47.00
2022-09-06T02:09:33.685Z,48.90
2022-09-06T02:13:01.691Z,49.25
2022-09-06T02:16:11.093Z,52.00
2022-09-06T02:19:32.766Z,54.80
2022-09-06T02:26:55.042Z,58.50
2022-09-06T02:30:41.431Z,53.13
2022-09-06T02:34:00.817Z,49.60
2022-09-06T02:36:49.108Z,67.40
2022-09-06T02:40:09.712Z,58.33
2022-09-06T02:43:00.890Z,68.68
2022-09-06T02:45:28.172Z,65.63
2022-09-06T02:47:55.149Z,57.25
2022-09-06T02:50:22.281Z,61.95
2022-09-06T02:53:20.031Z,61.95
2022-09-06T02:56:31.391Z,58.60
2022-09-06T02:59:10.764Z,62.78
2022-09-06T03:01:38.549Z,57.67
2022-09-06T03:04:05.886Z,49.63
2022-09-06T03:06:37.324Z,51.00
2022-09-06T03:09:04.763Z,56.13
2022-09-06T03:11:31.940Z,65.32
2022-09-06T03:14:05.884Z,60.35
2022-09-06T03:16:33.591Z,59.40
2022-09-06T03:19:04.724Z,62.03
2022-09-06T03:21:32.876Z,71.75
2022-09-06T03:24:03.978Z,56.13
2022-09-06T03:26:31.380Z,53.25
2022-09-06T03:28:58.812Z,65.80
2022-09-06T03:36:01.425Z,50.47
2022-09-06T04:38:57.538Z,51.42
2022-09-06T04:42:22.189Z,57.25
2022-09-06T04:45:17.747Z,67.15
2022-09-06T04:51:42.178Z,61.63
2022-09-06T04:54:29.442Z,64.85
2022-09-06T04:57:42.265Z,54.47
2022-09-06T05:03:56.914Z,58.80
2022-09-06T05:06:51.801Z,54.30
2022-09-06T05:09:24.841Z,65.60
2022-09-06T05:11:52.232Z,65.78
2022-09-06T05:14:19.510Z,55.63
2022-09-06T05:17:15.928Z,55.17
2022-09-06T05:20:00.180Z,53.47
2022-09-06T05:23:05.655Z,56.20
2022-09-06T05:25:48.262Z,64.47
2022-09-06T05:31:11.166Z,52.75
2022-09-06T05:33:41.693Z,54.72
2022-09-06T05:36:08.593Z,52.97
2022-09-06T05:38:35.451Z,55.10
2022-09-06T05:41:02.819Z,46.63
2022-09-06T05:43:29.783Z,45.53
2022-09-06T05:45:56.663Z,34.95
2022-09-06T05:48:23.866Z,35.67
2022-09-06T05:51:03.632Z,33.83
2022-09-06T05:53:37.323Z,32.08
2022-09-06T05:56:04.690Z,35.95
2022-09-06T05:58:31.615Z,41.67
2022-09-06T06:01:17.154Z,41.63
2022-09-06T06:03:51.395Z,34.50
2022-09-06T06:06:19.248Z,41.80
2022-09-06T06:08:46.279Z,38.85
2022-09-06T06:11:13.708Z,54.03
2022-09-06T06:13:40.691Z,28.55
2022-09-06T06:16:09.665Z,28.48
2022-09-06T06:18:36.889Z,26.33
2022-09-06T06:21:16.223Z,28.90
2022-09-06T06:23:44.668Z,35.05
2022-09-06T06:26:12.782Z,27.65
2022-09-06T06:28:40.290Z,25.35
2022-09-06T06:31:08.740Z,35.65
2022-09-06T06:33:39.221Z,36.42
2022-09-06T06:36:07.798Z,25.33
2022-09-06T06:38:37.561Z,27.90
2022-09-06T06:41:07.218Z,37.72
2022-09-06T06:43:38.016Z,33.65
2022-09-06T06:46:06.574Z,32.58
2022-09-06T06:48:33.442Z,28.13
2022-09-06T06:51:00.298Z,32.38
2022-09-06T06:53:27.144Z,28.80
2022-09-06T06:55:54.269Z,32.97
2022-09-06T06:58:21.600Z,34.63
2022-09-06T07:00:48.584Z,22.92
2022-09-06T07:03:15.536Z,32.60
2022-09-06T07:08:34.805Z,30.90
2022-09-06T07:11:02.463Z,27.95
2022-09-06T07:13:29.399Z,35.63
2022-09-06T07:16:15.166Z,40.72
2022-09-06T07:18:42.743Z,32.47
2022-09-06T07:26:31.753Z,36.40
2022-09-06T07:29:01.306Z,36.10
2022-09-06T07:34:17.770Z,37.10
2022-09-06T07:36:44.665Z,40.90
2022-09-06T07:39:11.903Z,41.00
2022-09-06T07:41:38.940Z,34.53
2022-09-06T07:44:06.380Z,35.35
2022-09-06T07:46:33.900Z,35.15
2022-09-06T07:49:00.836Z,34.40
2022-09-06T07:51:27.713Z,41.17
2022-09-06T07:54:19.381Z,38.55
2022-09-06T07:56:44.309Z,30.85
2022-09-06T07:59:11.190Z,31.80
2022-09-06T08:01:39.082Z,24.48
2022-09-06T08:04:08.823Z,21.23
2022-09-06T08:09:25.196Z,34.40
2022-09-06T08:11:52.824Z,28.08
2022-09-06T08:14:20.354Z,23.88
2022-09-06T08:16:47.334Z,26.92
2022-09-06T08:19:15.613Z,23.73
2022-09-06T08:21:42.551Z,34.55
2022-09-06T08:24:10.308Z,26.58
2022-09-06T08:26:40.465Z,26.92
2022-09-06T08:29:09.163Z,35.42
2022-09-06T08:31:41.811Z,31.05
2022-09-06T08:34:08.990Z,31.27
2022-09-06T08:36:35.854Z,29.35
2022-09-06T08:39:05.572Z,30.38
2022-09-06T08:41:33.658Z,23.88
2022-09-06T08:47:01.542Z,28.42
2022-09-06T08:49:49.926Z,34.88
2022-09-06T08:52:28.379Z,27.27
2022-09-06T08:55:34.297Z,27.92
2022-09-06T08:58:06.584Z,26.10
2022-09-06T09:00:35.158Z,27.90
2022-09-06T09:03:16.609Z,28.92
2022-09-06T09:05:48.006Z,25.67
2022-09-06T09:08:17.824Z,27.63
2022-09-06T09:10:51.029Z,26.45
2022-09-06T09:13:42.342Z,22.25
2022-09-06T09:16:09.351Z,22.67
2022-09-06T09:18:41.149Z,19.48
2022-09-06T09:21:09.355Z,20.58
2022-09-06T09:23:36.333Z,20.17
2022-09-06T09:26:06.266Z,26.73
2022-09-06T09:28:33.615Z,14.35
2022-09-06T09:31:00.593Z,17.88
2022-09-06T09:33:30.222Z,19.55
2022-09-06T09:36:00.007Z,18.58
2022-09-06T09:38:31.798Z,13.30
2022-09-06T09:41:02.151Z,15.20
2022-09-06T09:43:33.683Z,18.80
2022-09-06T09:46:13.119Z,20.85
2022-09-06T09:48:41.498Z,26.45
2022-09-06T09:51:25.546Z,21.65
2022-09-06T09:53:58.819Z,22.05
2022-09-06T09:56:32.752Z,27.45
2022-09-06T09:59:00.248Z,22.65
2022-09-06T10:01:32.102Z,18.30
2022-09-06T10:09:42.610Z,21.90
2022-09-06T10:12:15.947Z,20.60
2022-09-06T10:14:44.869Z,39.25
2022-09-06T10:17:29.815Z,29.67
2022-09-06T10:19:57.886Z,32.08
2022-09-06T10:22:32.761Z,19.00
2022-09-06T10:25:17.924Z,20.08
2022-09-06T10:28:11.820Z,16.65
2022-09-06T10:31:22.885Z,22.25
2022-09-06T10:34:03.859Z,21.33
2022-09-06T10:36:40.709Z,18.33
2022-09-06T10:39:26.035Z,26.30
2022-09-06T10:42:25.376Z,24.27
2022-09-06T10:45:16.065Z,29.85
2022-09-06T10:48:14.415Z,17.42
2022-09-06T10:50:54.599Z,17.30
2022-09-06T10:53:41.168Z,23.27
2022-09-06T10:56:33.208Z,27.80
2022-09-06T11:02:20.696Z,24.67
2022-09-06T11:10:34.171Z,23.95
2022-09-06T11:13:18.089Z,18.02
2022-09-06T11:15:56.420Z,28.50
2022-09-06T11:18:34.167Z,24.58
2022-09-06T11:21:06.954Z,23.73
2022-09-06T11:26:06.721Z,23.13
2022-09-06T11:28:46.279Z,24.58
2022-09-06T11:34:44.179Z,22.20
2022-09-06T11:37:32.678Z,26.23
2022-09-06T11:42:52.127Z,22.77
2022-09-06T11:45:42.931Z,20.45
2022-09-06T11:48:34.226Z,29.90
2022-09-06T11:51:10.812Z,23.55
2022-09-06T11:53:50.108Z,17.55
2022-09-06T11:56:27.458Z,17.20
2022-09-06T11:58:58.131Z,19.95
2022-09-06T12:01:24.943Z,15.88
2022-09-06T12:04:08.779Z,14.63
2022-09-06T12:06:41.725Z,20.73
2022-09-06T12:09:28.880Z,22.65
2022-09-06T12:11:56.674Z,13.23
2022-09-06T12:14:43.270Z,22.13
2022-09-06T12:17:11.478Z,20.92
2022-09-06T12:19:43.928Z,15.70
2022-09-06T12:22:29.492Z,13.73
2022-09-06T12:24:58.187Z,20.10
2022-09-06T12:27:25.657Z,16.20
2022-09-06T12:30:05.979Z,20.13
2022-09-06T12:32:38.810Z,19.08
2022-09-06T12:38:02.152Z,8.70
2022-09-06T12:40:34.305Z,8.65
2022-09-06T12:43:03.960Z,6.33
2022-09-06T12:45:31.090Z,13.35
2022-09-06T12:48:05.868Z,12.98
2022-09-06T12:50:32.731Z,10.73
2022-09-06T12:53:02.252Z,14.25
2022-09-06T12:55:33.293Z,20.38
2022-09-06T12:58:11.149Z,11.95
2022-09-06T13:00:42.667Z,11.35
2022-09-06T13:03:32.101Z,7.13
2022-09-06T13:06:00.459Z,13.70
2022-09-06T13:08:37.238Z,11.55
2022-09-06T13:11:05.501Z,17.70
2022-09-06T13:13:32.421Z,12.07
2022-09-06T13:15:59.309Z,7.78
2022-09-06T13:18:35.431Z,11.13
2022-09-06T13:21:15.747Z,13.55
2022-09-06T13:23:52.618Z,13.57
2022-09-06T13:26:39.402Z,10.73
2022-09-06T13:29:10.822Z,10.18
2022-09-06T13:31:38.940Z,15.52
2022-09-06T13:34:05.866Z,8.60
2022-09-06T13:36:33.005Z,15.63
2022-09-06T13:39:03.487Z,6.40
2022-09-06T13:41:30.263Z,12.10
2022-09-06T13:44:06.927Z,14.82
2022-09-06T13:46:36.296Z,14.63
2022-09-06T13:49:03.715Z,11.25
2022-09-06T13:51:30.504Z,11.77
2022-09-06T13:54:17.618Z,9.95
2022-09-06T13:56:44.836Z,8.45
2022-09-06T13:59:12.343Z,22.25
2022-09-06T14:01:40.631Z,10.18
2022-09-06T14:04:08.386Z,5.97
2022-09-06T14:06:36.946Z,16.67
2022-09-06T14:09:08.506Z,7.85
2022-09-06T14:11:36.694Z,21.35
2022-09-06T14:14:04.217Z,12.93
2022-09-06T14:16:32.307Z,16.75
2022-09-06T14:18:59.693Z,19.88
2022-09-06T14:21:26.893Z,15.75
2022-09-06T14:23:54.054Z,13.30
2022-09-06T14:26:23.352Z,13.68
2022-09-06T14:28:51.068Z,11.88
2022-09-06T14:31:21.228Z,15.60
2022-09-06T14:33:48.878Z,17.67
2022-09-06T14:36:18.456Z,15.68
2022-09-06T14:38:46.742Z,12.38
2022-09-06T14:41:14.863Z,10.77
2022-09-06T14:43:51.644Z,6.10
2022-09-06T14:46:21.235Z,8.02
2022-09-06T14:48:48.812Z,17.20
2022-09-06T14:51:20.755Z,10.85
2022-09-06T14:53:49.754Z,13.75
2022-09-06T14:56:16.545Z,12.70
2022-09-06T14:58:43.585Z,18.83
2022-09-06T15:01:15.788Z,7.50
2022-09-06T15:03:47.047Z,12.13
2022-09-06T15:06:15.094Z,14.10
2022-09-06T15:08:42.259Z,17.58
2022-09-06T15:11:11.103Z,12.43
2022-09-06T15:13:41.681Z,7.18
2022-09-06T15:16:10.702Z,9.43
2022-09-06T15:18:37.638Z,11.52
2022-09-06T15:21:15.727Z,12.50
2022-09-06T15:23:45.420Z,4.97
2022-09-06T15:26:16.244Z,14.30
2022-09-06T15:28:44.420Z,12.93
2022-09-06T15:31:13.202Z,10.75
2022-09-06T15:33:40.836Z,16.52
2022-09-06T15:36:10.178Z,13.30
2022-09-06T15:38:40.724Z,17.35
2022-09-06T15:41:12.832Z,12.05
2022-09-06T15:43:42.583Z,10.93
2022-09-06T15:46:10.348Z,9.48
2022-09-06T15:48:55.503Z,7.93
2022-09-06T15:51:22.384Z,15.93
2022-09-06T15:53:49.258Z,9.68
2022-09-06T15:56:17.302Z,9.38
2022-09-06T15:58:47.828Z,5.35
2022-09-06T16:01:20.624Z,9.68
2022-09-06T16:06:27.788Z,17.48
2022-09-06T16:09:04.208Z,10.40
2022-09-06T16:11:32.791Z,14.63
2022-09-06T16:13:59.720Z,13.32
2022-09-06T16:16:26.593Z,13.90
2022-09-06T16:18:53.443Z,13.25
2022-09-06T16:21:20.365Z,8.50
2022-09-06T16:23:52.763Z,12.70
2022-09-06T16:26:21.716Z,21.42
2022-09-06T16:28:50.294Z,10.93
2022-09-06T16:31:18.169Z,11.57
2022-09-06T16:33:45.822Z,16.90
2022-09-06T16:36:13.985Z,9.25
2022-09-06T16:38:41.904Z,6.85
2022-09-06T16:41:19.187Z,14.23
2022-09-06T16:43:49.396Z,13.73
2022-09-06T16:46:16.421Z,22.10
2022-09-06T16:48:43.351Z,7.65
2022-09-06T16:51:13.854Z,11.82
2022-09-06T16:53:42.766Z,14.15
2022-09-06T16:56:10.799Z,8.50
2022-09-06T16:58:39.163Z,17.25
2022-09-06T17:01:06.582Z,14.57
2022-09-06T17:03:35.058Z,6.80
2022-09-06T17:06:02.929Z,11.15
2022-09-06T17:08:34.545Z,10.90
2022-09-06T17:11:05.637Z,14.63
2022-09-06T17:13:32.634Z,15.48
2022-09-06T17:16:21.880Z,16.85
2022-09-06T17:18:49.875Z,16.45
2022-09-06T17:21:17.078Z,15.23
2022-09-06T17:23:43.897Z,36.75
2022-09-06T17:26:10.687Z,14.68
2022-09-06T17:28:39.660Z,12.38
2022-09-06T17:31:07.284Z,9.73
2022-09-06T17:33:34.986Z,14.43
2022-09-06T17:36:23.698Z,26.02
2022-09-06T17:38:53.626Z,7.65
2022-09-06T17:41:24.302Z,17.75
2022-09-06T17:43:52.866Z,13.60
2022-09-06T17:46:21.381Z,18.20
2022-09-06T17:48:50.431Z,16.88
2022-09-06T17:51:17.946Z,12.95
2022-09-06T17:53:46.701Z,12.82
2022-09-06T17:56:15.511Z,12.25
2022-09-06T17:58:45.094Z,20.42
2022-09-06T18:01:14.126Z,19.38
2022-09-06T18:03:42.070Z,32.80
2022-09-06T18:06:14.393Z,13.77
2022-09-06T18:08:43.493Z,14.93
2022-09-06T18:11:13.456Z,13.60
2022-09-06T18:13:43.011Z,18.83
2022-09-06T18:16:11.021Z,21.23
2022-09-06T18:18:37.868Z,20.58
2022-09-06T18:21:08.279Z,16.27
2022-09-06T18:23:35.932Z,10.32
2022-09-06T18:26:06.060Z,18.10
2022-09-06T18:28:35.064Z,17.88
2022-09-06T18:31:10.007Z,24.13
2022-09-06T18:33:37.645Z,27.75
2022-09-06T18:36:08.213Z,24.33
2022-09-06T18:38:35.711Z,23.85
2022-09-06T18:41:05.176Z,8.93
2022-09-06T18:43:38.016Z,16.20
2022-09-06T18:46:12.779Z,23.70
2022-09-06T18:48:40.648Z,18.67
2022-09-06T18:51:11.511Z,20.75
2022-09-06T18:53:43.961Z,28.92
2022-09-06T18:58:38.666Z,19.45
2022-09-06T19:01:08.069Z,17.38
2022-09-06T19:03:35.891Z,17.45
2022-09-06T19:06:12.234Z,19.95
2022-09-06T19:08:39.645Z,21.60
2022-09-06T19:11:09.208Z,42.03
2022-09-06T19:13:38.196Z,17.10
2022-09-06T19:16:06.485Z,27.13
2022-09-06T19:18:34.409Z,19.35
2022-09-06T19:21:06.660Z,15.57
2022-09-06T19:23:35.001Z,25.85
2022-09-06T19:26:07.575Z,20.42
2022-09-06T19:28:35.599Z,24.95
2022-09-06T19:31:13.736Z,20.20
2022-09-06T19:33:41.416Z,34.53
2022-09-06T19:36:12.043Z,19.67
2022-09-06T19:39:02.462Z,28.40
2022-09-06T19:41:29.028Z,26.73
2022-09-06T19:43:57.415Z,20.80
2022-09-06T19:46:27.692Z,24.25
2022-09-06T19:48:56.185Z,16.42
2022-09-06T19:51:24.330Z,19.98
2022-09-06T19:53:53.455Z,19.83
2022-09-06T19:56:22.546Z,27.45
2022-09-06T19:58:57.125Z,30.77
2022-09-06T20:01:25.951Z,30.45
2022-09-06T20:03:53.023Z,29.42
2022-09-06T20:06:22.517Z,25.85
2022-09-06T20:08:53.838Z,16.80
2022-09-06T20:11:22.027Z,24.70
2022-09-06T20:13:49.076Z,32.80
2022-09-06T20:16:17.944Z,35.38
2022-09-06T20:18:47.215Z,35.15
2022-09-06T20:21:14.976Z,35.45
2022-09-06T20:23:48.974Z,24.20
2022-09-06T20:26:16.155Z,32.33
2022-09-06T20:28:44.135Z,41.00
2022-09-06T20:31:13.798Z,29.13
2022-09-06T20:33:41.274Z,20.67
2022-09-06T20:36:10.631Z,35.75
2022-09-06T20:38:42.029Z,33.53
2022-09-06T20:41:09.524Z,35.90
2022-09-06T20:43:37.597Z,34.00
2022-09-06T20:46:12.931Z,28.95
2022-09-06T20:48:44.502Z,26.98
2022-09-06T20:51:15.630Z,24.63
2022-09-06T20:53:42.979Z,28.08
2022-09-06T20:56:12.623Z,29.70
2022-09-06T20:58:40.246Z,30.52
2022-09-06T21:01:12.012Z,22.08
2022-09-06T21:03:39.908Z,26.08
2022-09-06T21:06:08.789Z,28.48
2022-09-06T21:08:39.458Z,17.15
2022-09-06T21:11:09.851Z,30.58
2022-09-06T21:13:37.030Z,22.88
2022-09-06T21:16:04.607Z,28.85
2022-09-06T21:18:32.445Z,18.88
2022-09-06T21:21:01.568Z,31.25
2022-09-06T21:23:30.363Z,28.13
2022-09-06T21:25:59.909Z,28.42
2022-09-06T21:28:31.533Z,28.63
2022-09-06T21:31:04.510Z,21.95
2022-09-06T21:33:32.335Z,23.73
2022-09-06T21:36:06.956Z,28.75
2022-09-06T21:38:35.592Z,23.30
2022-09-06T21:41:03.837Z,25.42
2022-09-06T21:43:31.104Z,19.80
2022-09-06T21:46:04.855Z,20.67
2022-09-06T21:48:32.148Z,30.95
2022-09-06T21:50:58.955Z,17.23
2022-09-06T21:53:27.115Z,33.50
2022-09-06T21:56:02.422Z,21.75
2022-09-06T21:58:29.455Z,14.90
2022-09-06T22:01:00.529Z,27.20
2022-09-06T22:03:29.897Z,18.40
2022-09-06T22:05:57.195Z,19.60
2022-09-06T22:08:24.692Z,20.25
2022-09-06T22:10:51.980Z,17.88
2022-09-06T22:13:19.984Z,23.13
2022-09-06T22:15:46.969Z,23.35
2022-09-06T22:18:13.817Z,15.93
2022-09-06T22:20:40.766Z,27.98
2022-09-06T22:23:08.664Z,24.30
2022-09-06T22:25:35.597Z,27.85
2022-09-06T22:28:02.723Z,28.75
2022-09-06T22:30:30.082Z,20.52
2022-09-06T22:32:57.242Z,22.25
2022-09-06T22:38:29.651Z,16.02
2022-09-06T22:41:00.069Z,20.65
2022-09-06T22:43:26.938Z,29.23
2022-09-06T22:46:16.547Z,33.22
2022-09-06T22:49:10.747Z,19.67
2022-09-06T22:51:37.570Z,22.20
2022-09-06T22:54:06.214Z,16.95
2022-09-06T22:56:33.564Z,23.83
2022-09-06T22:59:00.743Z,19.85
2022-09-06T23:01:27.723Z,25.00
2022-09-06T23:03:54.649Z,32.75
2022-09-06T23:06:22.230Z,21.85
2022-09-06T23:08:49.720Z,19.45
2022-09-06T23:11:17.981Z,21.40
2022-09-06T23:13:47.028Z,18.52
2022-09-06T23:16:17.360Z,23.45
2022-09-06T23:18:45.376Z,21.40
2022-09-06T23:21:15.841Z,22.05
2022-09-06T23:23:43.027Z,20.42
2022-09-06T23:26:12.920Z,16.40
2022-09-06T23:28:39.885Z,19.25
2022-09-06T23:31:08.818Z,31.38
2022-09-06T23:33:37.327Z,25.92
2022-09-06T23:36:09.239Z,25.88
2022-09-06T23:38:37.258Z,18.38
2022-09-06T23:41:04.615Z,14.80
2022-09-06T23:43:31.670Z,13.40
2022-09-06T23:45:58.716Z,20.23
2022-09-06T23:48:25.695Z,15.63
2022-09-06T23:50:52.655Z,15.63
2022-09-06T23:53:19.939Z,17.73
2022-09-06T23:55:46.811Z,17.65
2022-09-06T23:58:13.866Z,22.75
